sensor_id;sensor_type;location;lat;lon;timestamp;P1;durP1;ratioP1;P2;durP2;ratioP2
23494;SDS011;26107;50.832;2.950;2023-04-24T00:02:20;4.20;;;2.90;;
23494;SDS011;26107;50.832;2.950;2023-04-24T00:17:22;4.80;;;3.42;;
23494;SDS011;26107;50.832;2.950;2023-04-24T00:32:22;6.53;;;4.80;;
23494;SDS011;26107;50.832;2.950;2023-04-24T00:47:23;10.75;;;8.48;;
23494;SDS011;26107;50.832;2.950;2023-04-24T01:02:25;10.35;;;7.35;;
23494;SDS011;26107;50.832;2.950;2023-04-24T01:17:26;14.93;;;9.73;;
23494;SDS011;26107;50.832;2.950;2023-04-24T01:32:26;17.30;;;10.95;;
23494;SDS011;26107;50.832;2.950;2023-04-24T01:47:28;17.75;;;12.07;;
23494;SDS011;26107;50.832;2.950;2023-04-24T02:02:30;16.17;;;10.30;;
23494;SDS011;26107;50.832;2.950;2023-04-24T02:17:31;16.85;;;10.98;;
23494;SDS011;26107;50.832;2.950;2023-04-24T02:32:31;20.35;;;11.98;;
23494;SDS011;26107;50.832;2.950;2023-04-24T02:47:32;14.60;;;10.52;;
23494;SDS011;26107;50.832;2.950;2023-04-24T03:02:32;18.15;;;11.55;;
23494;SDS011;26107;50.832;2.950;2023-04-24T03:17:33;18.60;;;11.70;;
23494;SDS011;26107;50.832;2.950;2023-04-24T03:32:35;17.27;;;10.85;;
23494;SDS011;26107;50.832;2.950;2023-04-24T03:47:36;20.30;;;11.07;;
23494;SDS011;26107;50.832;2.950;2023-04-24T04:02:36;15.32;;;10.07;;
23494;SDS011;26107;50.832;2.950;2023-04-24T04:17:37;19.90;;;10.02;;
23494;SDS011;26107;50.832;2.950;2023-04-24T04:32:38;14.38;;;8.85;;
23494;SDS011;26107;50.832;2.950;2023-04-24T04:47:38;15.70;;;8.75;;
23494;SDS011;26107;50.832;2.950;2023-04-24T05:02:39;15.20;;;9.53;;
23494;SDS011;26107;50.832;2.950;2023-04-24T05:17:40;25.60;;;10.75;;
23494;SDS011;26107;50.832;2.950;2023-04-24T05:32:41;20.05;;;11.80;;
23494;SDS011;26107;50.832;2.950;2023-04-24T05:47:41;23.30;;;12.43;;
23494;SDS011;26107;50.832;2.950;2023-04-24T06:02:43;21.75;;;12.77;;
23494;SDS011;26107;50.832;2.950;2023-04-24T06:17:44;22.88;;;12.32;;
23494;SDS011;26107;50.832;2.950;2023-04-24T06:32:44;21.00;;;12.73;;
23494;SDS011;26107;50.832;2.950;2023-04-24T06:47:45;27.00;;;12.75;;
23494;SDS011;26107;50.832;2.950;2023-04-24T07:02:46;20.20;;;12.55;;
23494;SDS011;26107;50.832;2.950;2023-04-24T07:17:47;26.27;;;12.95;;
23494;SDS011;26107;50.832;2.950;2023-04-24T07:32:47;18.27;;;9.50;;
23494;SDS011;26107;50.832;2.950;2023-04-24T07:47:48;12.40;;;6.00;;
23494;SDS011;26107;50.832;2.950;2023-04-24T08:02:50;10.80;;;6.00;;
23494;SDS011;26107;50.832;2.950;2023-04-24T08:17:51;13.95;;;8.82;;
23494;SDS011;26107;50.832;2.950;2023-04-24T08:32:51;15.10;;;8.63;;
23494;SDS011;26107;50.832;2.950;2023-04-24T08:47:53;18.30;;;10.18;;
23494;SDS011;26107;50.832;2.950;2023-04-24T09:02:56;10.93;;;7.43;;
23494;SDS011;26107;50.832;2.950;2023-04-24T09:17:57;13.80;;;9.00;;
23494;SDS011;26107;50.832;2.950;2023-04-24T09:33:10;14.38;;;8.35;;
23494;SDS011;26107;50.832;2.950;2023-04-24T09:48:15;11.30;;;6.78;;
23494;SDS011;26107;50.832;2.950;2023-04-24T10:03:16;13.93;;;7.75;;
23494;SDS011;26107;50.832;2.950;2023-04-24T10:18:18;13.13;;;8.07;;
23494;SDS011;26107;50.832;2.950;2023-04-24T10:33:21;12.45;;;7.68;;
23494;SDS011;26107;50.832;2.950;2023-04-24T10:48:25;12.75;;;8.00;;
23494;SDS011;26107;50.832;2.950;2023-04-24T11:03:29;10.05;;;7.18;;
23494;SDS011;26107;50.832;2.950;2023-04-24T11:18:36;10.40;;;6.88;;
23494;SDS011;26107;50.832;2.950;2023-04-24T11:33:38;7.95;;;5.45;;
23494;SDS011;26107;50.832;2.950;2023-04-24T11:48:38;9.45;;;6.10;;
23494;SDS011;26107;50.832;2.950;2023-04-24T12:03:49;7.65;;;5.88;;
23494;SDS011;26107;50.832;2.950;2023-04-24T12:18:51;7.88;;;5.18;;
23494;SDS011;26107;50.832;2.950;2023-04-24T12:33:51;7.18;;;4.95;;
23494;SDS011;26107;50.832;2.950;2023-04-24T12:48:52;10.20;;;5.75;;
23494;SDS011;26107;50.832;2.950;2023-04-24T13:03:53;7.68;;;4.55;;
23494;SDS011;26107;50.832;2.950;2023-04-24T13:18:53;8.07;;;4.50;;
23494;SDS011;26107;50.832;2.950;2023-04-24T13:33:54;8.70;;;5.05;;
23494;SDS011;26107;50.832;2.950;2023-04-24T13:48:54;7.50;;;5.57;;
23494;SDS011;26107;50.832;2.950;2023-04-24T14:03:55;8.20;;;5.00;;
23494;SDS011;26107;50.832;2.950;2023-04-24T14:18:56;9.73;;;4.45;;
23494;SDS011;26107;50.832;2.950;2023-04-24T14:33:56;7.53;;;3.28;;
23494;SDS011;26107;50.832;2.950;2023-04-24T14:48:57;4.68;;;3.67;;
23494;SDS011;26107;50.832;2.950;2023-04-24T15:03:58;4.25;;;2.95;;
23494;SDS011;26107;50.832;2.950;2023-04-24T15:18:58;8.65;;;2.40;;
23494;SDS011;26107;50.832;2.950;2023-04-24T15:33:59;3.33;;;1.65;;
23494;SDS011;26107;50.832;2.950;2023-04-24T15:49:00;2.95;;;1.40;;
23494;SDS011;26107;50.832;2.950;2023-04-24T16:04:00;3.67;;;1.88;;
23494;SDS011;26107;50.832;2.950;2023-04-24T16:19:01;1.95;;;1.73;;
23494;SDS011;26107;50.832;2.950;2023-04-24T16:34:02;4.47;;;1.55;;
23494;SDS011;26107;50.832;2.950;2023-04-24T16:49:02;4.30;;;2.03;;
23494;SDS011;26107;50.832;2.950;2023-04-24T17:04:03;2.20;;;1.40;;
23494;SDS011;26107;50.832;2.950;2023-04-24T17:19:04;3.40;;;1.92;;
23494;SDS011;26107;50.832;2.950;2023-04-24T17:34:05;4.17;;;1.83;;
23494;SDS011;26107;50.832;2.950;2023-04-24T17:49:06;5.13;;;2.42;;
23494;SDS011;26107;50.832;2.950;2023-04-24T18:04:07;3.80;;;2.05;;
23494;SDS011;26107;50.832;2.950;2023-04-24T18:19:07;3.88;;;2.00;;
23494;SDS011;26107;50.832;2.950;2023-04-24T18:34:08;5.53;;;2.20;;
23494;SDS011;26107;50.832;2.950;2023-04-24T18:49:09;6.82;;;2.50;;
23494;SDS011;26107;50.832;2.950;2023-04-24T19:04:09;2.95;;;1.70;;
23494;SDS011;26107;50.832;2.950;2023-04-24T19:19:10;6.77;;;3.13;;
23494;SDS011;26107;50.832;2.950;2023-04-24T19:34:11;3.97;;;2.50;;
23494;SDS011;26107;50.832;2.950;2023-04-24T19:49:11;6.22;;;2.78;;
23494;SDS011;26107;50.832;2.950;2023-04-24T20:04:14;8.02;;;3.72;;
23494;SDS011;26107;50.832;2.950;2023-04-24T20:19:14;5.43;;;3.72;;
23494;SDS011;26107;50.832;2.950;2023-04-24T20:34:15;5.47;;;3.25;;
23494;SDS011;26107;50.832;2.950;2023-04-24T20:49:15;3.53;;;2.92;;
23494;SDS011;26107;50.832;2.950;2023-04-24T21:04:16;7.43;;;4.50;;
23494;SDS011;26107;50.832;2.950;2023-04-24T21:19:17;5.05;;;3.88;;
23494;SDS011;26107;50.832;2.950;2023-04-24T21:34:17;9.02;;;5.45;;
23494;SDS011;26107;50.832;2.950;2023-04-24T21:49:18;9.15;;;5.15;;
23494;SDS011;26107;50.832;2.950;2023-04-24T22:04:18;8.48;;;5.40;;
23494;SDS011;26107;50.832;2.950;2023-04-24T22:19:19;9.75;;;5.80;;
23494;SDS011;26107;50.832;2.950;2023-04-24T22:34:19;9.38;;;4.85;;
23494;SDS011;26107;50.832;2.950;2023-04-24T22:49:20;9.27;;;6.28;;
23494;SDS011;26107;50.832;2.950;2023-04-24T23:04:21;10.43;;;6.07;;
23494;SDS011;26107;50.832;2.950;2023-04-24T23:19:21;8.63;;;6.05;;
23494;SDS011;26107;50.832;2.950;2023-04-24T23:34:22;11.85;;;6.35;;
23494;SDS011;26107;50.832;2.950;2023-04-24T23:49:22;10.00;;;6.18;;
